sensor_id;sensor_type;location;lat;lon;timestamp;P1;durP1;ratioP1;P2;durP2;ratioP2
38611;SDS011;24368;52.156;20.788;2022-12-16T00:01:15;63.00;;;39.40;;
38611;SDS011;24368;52.156;20.788;2022-12-16T00:06:20;61.60;;;39.80;;
38611;SDS011;24368;52.156;20.788;2022-12-16T00:11:22;64.60;;;37.20;;
38611;SDS011;24368;52.156;20.788;2022-12-16T00:16:24;60.30;;;36.30;;
38611;SDS011;24368;52.156;20.788;2022-12-16T00:21:25;69.50;;;41.30;;
38611;SDS011;24368;52.156;20.788;2022-12-16T00:26:29;69.60;;;40.70;;
38611;SDS011;24368;52.156;20.788;2022-12-16T00:31:30;66.50;;;41.00;;
38611;SDS011;24368;52.156;20.788;2022-12-16T00:36:31;71.40;;;40.60;;
38611;SDS011;24368;52.156;20.788;2022-12-16T00:41:33;68.60;;;42.10;;
38611;SDS011;24368;52.156;20.788;2022-12-16T00:46:34;71.60;;;41.90;;
38611;SDS011;24368;52.156;20.788;2022-12-16T00:51:35;69.90;;;41.40;;
38611;SDS011;24368;52.156;20.788;2022-12-16T00:56:36;69.90;;;40.80;;
38611;SDS011;24368;52.156;20.788;2022-12-16T01:01:37;68.20;;;41.80;;
38611;SDS011;24368;52.156;20.788;2022-12-16T01:06:38;64.80;;;38.40;;
38611;SDS011;24368;52.156;20.788;2022-12-16T01:11:39;64.40;;;39.30;;
38611;SDS011;24368;52.156;20.788;2022-12-16T01:16:40;62.40;;;37.20;;
38611;SDS011;24368;52.156;20.788;2022-12-16T01:21:41;59.70;;;35.40;;
38611;SDS011;24368;52.156;20.788;2022-12-16T01:26:42;57.20;;;35.40;;
38611;SDS011;24368;52.156;20.788;2022-12-16T01:31:43;59.60;;;35.30;;
38611;SDS011;24368;52.156;20.788;2022-12-16T01:36:44;58.80;;;33.80;;
38611;SDS011;24368;52.156;20.788;2022-12-16T01:41:45;56.10;;;35.30;;
38611;SDS011;24368;52.156;20.788;2022-12-16T01:46:50;60.90;;;34.20;;
38611;SDS011;24368;52.156;20.788;2022-12-16T01:51:57;55.00;;;33.60;;
38611;SDS011;24368;52.156;20.788;2022-12-16T01:57:08;61.50;;;34.60;;
38611;SDS011;24368;52.156;20.788;2022-12-16T02:02:24;59.50;;;34.50;;
38611;SDS011;24368;52.156;20.788;2022-12-16T02:07:26;53.90;;;33.40;;
38611;SDS011;24368;52.156;20.788;2022-12-16T02:12:28;53.30;;;32.30;;
38611;SDS011;24368;52.156;20.788;2022-12-16T02:17:46;55.30;;;31.20;;
38611;SDS011;24368;52.156;20.788;2022-12-16T02:23:21;49.60;;;28.90;;
38611;SDS011;24368;52.156;20.788;2022-12-16T02:38:55;49.30;;;28.90;;
38611;SDS011;24368;52.156;20.788;2022-12-16T02:44:05;49.80;;;29.50;;
38611;SDS011;24368;52.156;20.788;2022-12-16T02:49:54;50.00;;;30.40;;
38611;SDS011;24368;52.156;20.788;2022-12-16T02:54:32;48.00;;;27.70;;
38611;SDS011;24368;52.156;20.788;2022-12-16T02:59:42;46.10;;;29.10;;
38611;SDS011;24368;52.156;20.788;2022-12-16T03:10:30;46.50;;;28.00;;
38611;SDS011;24368;52.156;20.788;2022-12-16T03:15:36;46.70;;;27.90;;
38611;SDS011;24368;52.156;20.788;2022-12-16T03:25:53;50.10;;;27.90;;
38611;SDS011;24368;52.156;20.788;2022-12-16T03:36:32;43.80;;;26.10;;
38611;SDS011;24368;52.156;20.788;2022-12-16T03:41:36;41.50;;;26.50;;
38611;SDS011;24368;52.156;20.788;2022-12-16T03:46:38;50.10;;;29.20;;
38611;SDS011;24368;52.156;20.788;2022-12-16T03:51:39;45.80;;;28.50;;
38611;SDS011;24368;52.156;20.788;2022-12-16T03:56:40;46.50;;;27.80;;
38611;SDS011;24368;52.156;20.788;2022-12-16T04:01:41;44.20;;;25.30;;
38611;SDS011;24368;52.156;20.788;2022-12-16T04:06:43;42.90;;;25.90;;
38611;SDS011;24368;52.156;20.788;2022-12-16T04:11:44;46.50;;;27.30;;
38611;SDS011;24368;52.156;20.788;2022-12-16T04:17:04;43.50;;;26.80;;
38611;SDS011;24368;52.156;20.788;2022-12-16T04:22:25;49.10;;;28.90;;
38611;SDS011;24368;52.156;20.788;2022-12-16T04:27:49;44.50;;;28.20;;
38611;SDS011;24368;52.156;20.788;2022-12-16T04:32:58;51.20;;;29.50;;
38611;SDS011;24368;52.156;20.788;2022-12-16T04:38:20;51.40;;;28.20;;
38611;SDS011;24368;52.156;20.788;2022-12-16T04:43:40;50.40;;;27.30;;
38611;SDS011;24368;52.156;20.788;2022-12-16T04:49:00;46.10;;;29.10;;
38611;SDS011;24368;52.156;20.788;2022-12-16T04:54:19;48.20;;;27.80;;
38611;SDS011;24368;52.156;20.788;2022-12-16T04:59:39;51.10;;;29.20;;
38611;SDS011;24368;52.156;20.788;2022-12-16T05:04:59;48.00;;;29.00;;
38611;SDS011;24368;52.156;20.788;2022-12-16T05:10:19;50.50;;;27.30;;
38611;SDS011;24368;52.156;20.788;2022-12-16T05:15:39;47.40;;;27.10;;
38611;SDS011;24368;52.156;20.788;2022-12-16T05:20:59;47.20;;;27.70;;
38611;SDS011;24368;52.156;20.788;2022-12-16T05:26:20;44.30;;;27.50;;
38611;SDS011;24368;52.156;20.788;2022-12-16T05:31:39;45.30;;;27.50;;
38611;SDS011;24368;52.156;20.788;2022-12-16T05:36:59;49.00;;;29.40;;
38611;SDS011;24368;52.156;20.788;2022-12-16T05:42:20;50.80;;;28.90;;
38611;SDS011;24368;52.156;20.788;2022-12-16T05:47:40;48.90;;;27.40;;
38611;SDS011;24368;52.156;20.788;2022-12-16T05:52:59;49.10;;;29.90;;
38611;SDS011;24368;52.156;20.788;2022-12-16T05:58:19;57.70;;;31.60;;
38611;SDS011;24368;52.156;20.788;2022-12-16T06:03:39;53.80;;;31.90;;
38611;SDS011;24368;52.156;20.788;2022-12-16T06:08:59;56.50;;;32.40;;
38611;SDS011;24368;52.156;20.788;2022-12-16T06:14:19;50.70;;;31.90;;
38611;SDS011;24368;52.156;20.788;2022-12-16T06:19:40;57.30;;;32.60;;
38611;SDS011;24368;52.156;20.788;2022-12-16T06:24:59;60.10;;;31.50;;
38611;SDS011;24368;52.156;20.788;2022-12-16T06:30:19;51.80;;;32.70;;
38611;SDS011;24368;52.156;20.788;2022-12-16T06:35:38;54.70;;;32.20;;
38611;SDS011;24368;52.156;20.788;2022-12-16T06:40:58;56.80;;;32.30;;
38611;SDS011;24368;52.156;20.788;2022-12-16T06:46:18;57.00;;;34.50;;
38611;SDS011;24368;52.156;20.788;2022-12-16T06:51:38;49.90;;;30.60;;
38611;SDS011;24368;52.156;20.788;2022-12-16T06:56:58;56.70;;;33.10;;
38611;SDS011;24368;52.156;20.788;2022-12-16T07:02:17;55.90;;;32.40;;
38611;SDS011;24368;52.156;20.788;2022-12-16T07:07:37;53.20;;;31.20;;
38611;SDS011;24368;52.156;20.788;2022-12-16T07:12:58;52.90;;;31.00;;
38611;SDS011;24368;52.156;20.788;2022-12-16T07:18:18;54.00;;;32.20;;
38611;SDS011;24368;52.156;20.788;2022-12-16T07:23:38;54.30;;;31.60;;
38611;SDS011;24368;52.156;20.788;2022-12-16T07:28:57;60.80;;;35.10;;
38611;SDS011;24368;52.156;20.788;2022-12-16T07:34:17;59.50;;;32.80;;
38611;SDS011;24368;52.156;20.788;2022-12-16T07:39:37;57.00;;;33.20;;
38611;SDS011;24368;52.156;20.788;2022-12-16T07:44:57;60.00;;;34.60;;
38611;SDS011;24368;52.156;20.788;2022-12-16T07:50:16;59.00;;;34.90;;
38611;SDS011;24368;52.156;20.788;2022-12-16T07:55:36;61.00;;;35.10;;
38611;SDS011;24368;52.156;20.788;2022-12-16T08:00:56;64.00;;;35.70;;
38611;SDS011;24368;52.156;20.788;2022-12-16T08:06:15;64.70;;;35.50;;
38611;SDS011;24368;52.156;20.788;2022-12-16T08:11:35;66.90;;;36.30;;
38611;SDS011;24368;52.156;20.788;2022-12-16T08:16:55;62.20;;;36.80;;
38611;SDS011;24368;52.156;20.788;2022-12-16T08:22:14;64.90;;;39.00;;
38611;SDS011;24368;52.156;20.788;2022-12-16T08:27:34;68.70;;;38.00;;
38611;SDS011;24368;52.156;20.788;2022-12-16T08:32:54;76.70;;;38.60;;
38611;SDS011;24368;52.156;20.788;2022-12-16T08:38:13;63.40;;;35.10;;
38611;SDS011;24368;52.156;20.788;2022-12-16T08:43:34;63.50;;;37.00;;
38611;SDS011;24368;52.156;20.788;2022-12-16T08:48:54;60.80;;;37.70;;
38611;SDS011;24368;52.156;20.788;2022-12-16T08:54:14;64.10;;;38.00;;
38611;SDS011;24368;52.156;20.788;2022-12-16T08:59:34;64.20;;;36.30;;
38611;SDS011;24368;52.156;20.788;2022-12-16T09:04:53;58.00;;;35.30;;
38611;SDS011;24368;52.156;20.788;2022-12-16T09:10:13;65.20;;;36.40;;
38611;SDS011;24368;52.156;20.788;2022-12-16T09:15:33;63.20;;;36.00;;
38611;SDS011;24368;52.156;20.788;2022-12-16T09:20:53;61.70;;;35.90;;
38611;SDS011;24368;52.156;20.788;2022-12-16T09:26:13;61.20;;;33.00;;
38611;SDS011;24368;52.156;20.788;2022-12-16T09:31:32;58.20;;;35.00;;
38611;SDS011;24368;52.156;20.788;2022-12-16T09:36:52;60.60;;;36.10;;
38611;SDS011;24368;52.156;20.788;2022-12-16T09:47:50;59.70;;;36.20;;
38611;SDS011;24368;52.156;20.788;2022-12-16T09:53:12;54.80;;;33.90;;
38611;SDS011;24368;52.156;20.788;2022-12-16T09:58:37;55.30;;;32.80;;
38611;SDS011;24368;52.156;20.788;2022-12-16T10:04:02;56.30;;;34.80;;
38611;SDS011;24368;52.156;20.788;2022-12-16T10:09:26;56.40;;;34.20;;
38611;SDS011;24368;52.156;20.788;2022-12-16T10:14:56;60.80;;;34.40;;
38611;SDS011;24368;52.156;20.788;2022-12-16T10:20:41;51.80;;;31.80;;
38611;SDS011;24368;52.156;20.788;2022-12-16T10:31:54;59.40;;;36.30;;
38611;SDS011;24368;52.156;20.788;2022-12-16T10:37:19;57.20;;;35.80;;
38611;SDS011;24368;52.156;20.788;2022-12-16T10:42:58;58.90;;;36.60;;
38611;SDS011;24368;52.156;20.788;2022-12-16T10:48:26;60.60;;;37.30;;
38611;SDS011;24368;52.156;20.788;2022-12-16T10:53:46;60.00;;;35.90;;
38611;SDS011;24368;52.156;20.788;2022-12-16T10:59:08;55.30;;;34.40;;
38611;SDS011;24368;52.156;20.788;2022-12-16T11:04:33;58.00;;;35.30;;
38611;SDS011;24368;52.156;20.788;2022-12-16T11:09:54;57.00;;;34.20;;
38611;SDS011;24368;52.156;20.788;2022-12-16T11:15:19;59.50;;;36.40;;
38611;SDS011;24368;52.156;20.788;2022-12-16T11:20:39;54.80;;;32.40;;
38611;SDS011;24368;52.156;20.788;2022-12-16T11:26:09;52.60;;;33.20;;
38611;SDS011;24368;52.156;20.788;2022-12-16T11:31:34;54.50;;;33.90;;
38611;SDS011;24368;52.156;20.788;2022-12-16T11:36:53;57.00;;;34.90;;
38611;SDS011;24368;52.156;20.788;2022-12-16T11:42:19;57.50;;;33.60;;
38611;SDS011;24368;52.156;20.788;2022-12-16T11:59:20;53.50;;;32.70;;
38611;SDS011;24368;52.156;20.788;2022-12-16T12:04:48;54.60;;;32.30;;
38611;SDS011;24368;52.156;20.788;2022-12-16T12:10:22;54.90;;;32.30;;
38611;SDS011;24368;52.156;20.788;2022-12-16T12:16:07;58.60;;;37.00;;
38611;SDS011;24368;52.156;20.788;2022-12-16T12:21:42;60.50;;;37.90;;
38611;SDS011;24368;52.156;20.788;2022-12-16T12:27:25;55.30;;;32.60;;
38611;SDS011;24368;52.156;20.788;2022-12-16T12:38:30;53.40;;;32.80;;
38611;SDS011;24368;52.156;20.788;2022-12-16T12:44:18;53.50;;;34.00;;
38611;SDS011;24368;52.156;20.788;2022-12-16T13:06:19;45.00;;;29.30;;
38611;SDS011;24368;52.156;20.788;2022-12-16T13:22:46;55.10;;;34.90;;
38611;SDS011;24368;52.156;20.788;2022-12-16T13:28:16;61.50;;;37.70;;
38611;SDS011;24368;52.156;20.788;2022-12-16T13:33:50;58.40;;;35.50;;
38611;SDS011;24368;52.156;20.788;2022-12-16T13:39:19;54.00;;;33.40;;
38611;SDS011;24368;52.156;20.788;2022-12-16T13:50:33;59.20;;;36.50;;
38611;SDS011;24368;52.156;20.788;2022-12-16T13:55:58;51.50;;;33.70;;
38611;SDS011;24368;52.156;20.788;2022-12-16T14:01:42;57.80;;;34.40;;
38611;SDS011;24368;52.156;20.788;2022-12-16T14:07:06;54.10;;;34.40;;
38611;SDS011;24368;52.156;20.788;2022-12-16T14:18:38;55.30;;;34.40;;
38611;SDS011;24368;52.156;20.788;2022-12-16T14:24:06;54.10;;;31.60;;
38611;SDS011;24368;52.156;20.788;2022-12-16T14:29:34;60.30;;;36.30;;
38611;SDS011;24368;52.156;20.788;2022-12-16T14:34:59;61.90;;;36.70;;
38611;SDS011;24368;52.156;20.788;2022-12-16T14:40:27;54.00;;;33.20;;
38611;SDS011;24368;52.156;20.788;2022-12-16T14:45:48;58.00;;;35.10;;
38611;SDS011;24368;52.156;20.788;2022-12-16T14:51:14;65.60;;;37.50;;
38611;SDS011;24368;52.156;20.788;2022-12-16T14:56:45;64.90;;;38.40;;
38611;SDS011;24368;52.156;20.788;2022-12-16T15:02:18;58.10;;;35.20;;
38611;SDS011;24368;52.156;20.788;2022-12-16T15:07:48;55.40;;;33.90;;
38611;SDS011;24368;52.156;20.788;2022-12-16T15:13:17;57.90;;;34.90;;
38611;SDS011;24368;52.156;20.788;2022-12-16T15:18:38;53.80;;;31.70;;
38611;SDS011;24368;52.156;20.788;2022-12-16T15:29:46;54.30;;;32.10;;
38611;SDS011;24368;52.156;20.788;2022-12-16T15:35:07;60.70;;;36.70;;
38611;SDS011;24368;52.156;20.788;2022-12-16T15:40:28;60.10;;;37.20;;
38611;SDS011;24368;52.156;20.788;2022-12-16T15:45:49;62.00;;;36.40;;
38611;SDS011;24368;52.156;20.788;2022-12-16T15:56:51;53.80;;;33.00;;
38611;SDS011;24368;52.156;20.788;2022-12-16T16:02:15;55.20;;;33.00;;
38611;SDS011;24368;52.156;20.788;2022-12-16T16:07:35;51.40;;;31.70;;
38611;SDS011;24368;52.156;20.788;2022-12-16T16:12:55;48.50;;;29.70;;
38611;SDS011;24368;52.156;20.788;2022-12-16T16:18:15;48.20;;;28.60;;
38611;SDS011;24368;52.156;20.788;2022-12-16T16:23:34;50.70;;;30.90;;
38611;SDS011;24368;52.156;20.788;2022-12-16T16:28:54;48.80;;;28.30;;
38611;SDS011;24368;52.156;20.788;2022-12-16T16:34:14;49.50;;;30.00;;
38611;SDS011;24368;52.156;20.788;2022-12-16T16:39:34;40.80;;;26.00;;
38611;SDS011;24368;52.156;20.788;2022-12-16T16:44:53;48.90;;;31.40;;
38611;SDS011;24368;52.156;20.788;2022-12-16T16:50:13;52.80;;;32.00;;
38611;SDS011;24368;52.156;20.788;2022-12-16T16:55:33;51.50;;;32.40;;
38611;SDS011;24368;52.156;20.788;2022-12-16T17:00:53;58.50;;;35.10;;
38611;SDS011;24368;52.156;20.788;2022-12-16T17:06:13;55.30;;;33.70;;
38611;SDS011;24368;52.156;20.788;2022-12-16T17:11:33;52.80;;;32.30;;
38611;SDS011;24368;52.156;20.788;2022-12-16T17:16:53;57.00;;;34.40;;
38611;SDS011;24368;52.156;20.788;2022-12-16T17:22:13;54.00;;;34.30;;
38611;SDS011;24368;52.156;20.788;2022-12-16T17:27:33;54.10;;;32.20;;
38611;SDS011;24368;52.156;20.788;2022-12-16T17:32:53;54.60;;;32.70;;
38611;SDS011;24368;52.156;20.788;2022-12-16T17:38:17;56.40;;;34.50;;
38611;SDS011;24368;52.156;20.788;2022-12-16T17:43:37;56.30;;;34.90;;
38611;SDS011;24368;52.156;20.788;2022-12-16T17:48:56;50.20;;;34.20;;
38611;SDS011;24368;52.156;20.788;2022-12-16T17:54:17;55.70;;;33.90;;
38611;SDS011;24368;52.156;20.788;2022-12-16T17:59:37;55.20;;;33.70;;
38611;SDS011;24368;52.156;20.788;2022-12-16T18:05:13;46.70;;;28.70;;
38611;SDS011;24368;52.156;20.788;2022-12-16T18:10:33;42.40;;;27.90;;
38611;SDS011;24368;52.156;20.788;2022-12-16T18:15:53;47.30;;;29.60;;
38611;SDS011;24368;52.156;20.788;2022-12-16T18:21:13;53.00;;;33.10;;
38611;SDS011;24368;52.156;20.788;2022-12-16T18:26:33;53.70;;;34.10;;
38611;SDS011;24368;52.156;20.788;2022-12-16T18:31:53;51.20;;;30.20;;
38611;SDS011;24368;52.156;20.788;2022-12-16T18:37:13;44.10;;;26.80;;
38611;SDS011;24368;52.156;20.788;2022-12-16T18:42:33;45.20;;;29.30;;
38611;SDS011;24368;52.156;20.788;2022-12-16T18:47:52;48.90;;;30.90;;
38611;SDS011;24368;52.156;20.788;2022-12-16T18:53:12;54.40;;;33.80;;
38611;SDS011;24368;52.156;20.788;2022-12-16T18:58:35;52.10;;;31.70;;
38611;SDS011;24368;52.156;20.788;2022-12-16T19:03:55;49.00;;;29.70;;
38611;SDS011;24368;52.156;20.788;2022-12-16T19:09:16;41.20;;;27.30;;
38611;SDS011;24368;52.156;20.788;2022-12-16T19:14:36;50.30;;;28.90;;
38611;SDS011;24368;52.156;20.788;2022-12-16T19:20:04;50.30;;;30.40;;
38611;SDS011;24368;52.156;20.788;2022-12-16T19:25:24;48.00;;;31.30;;
38611;SDS011;24368;52.156;20.788;2022-12-16T19:30:54;50.10;;;31.40;;
38611;SDS011;24368;52.156;20.788;2022-12-16T19:36:14;50.10;;;31.60;;
38611;SDS011;24368;52.156;20.788;2022-12-16T19:41:33;45.60;;;30.10;;
38611;SDS011;24368;52.156;20.788;2022-12-16T19:46:53;53.30;;;31.60;;
38611;SDS011;24368;52.156;20.788;2022-12-16T19:52:13;45.20;;;27.40;;
38611;SDS011;24368;52.156;20.788;2022-12-16T19:57:32;44.40;;;26.50;;
38611;SDS011;24368;52.156;20.788;2022-12-16T20:02:52;43.60;;;28.00;;
38611;SDS011;24368;52.156;20.788;2022-12-16T20:08:12;49.40;;;31.10;;
38611;SDS011;24368;52.156;20.788;2022-12-16T20:13:33;49.50;;;29.30;;
38611;SDS011;24368;52.156;20.788;2022-12-16T20:18:53;51.70;;;31.50;;
38611;SDS011;24368;52.156;20.788;2022-12-16T20:24:14;55.70;;;32.10;;
38611;SDS011;24368;52.156;20.788;2022-12-16T20:29:34;50.60;;;29.50;;
38611;SDS011;24368;52.156;20.788;2022-12-16T20:34:54;49.90;;;30.60;;
38611;SDS011;24368;52.156;20.788;2022-12-16T20:40:14;53.80;;;33.00;;
38611;SDS011;24368;52.156;20.788;2022-12-16T20:45:34;54.70;;;32.50;;
38611;SDS011;24368;52.156;20.788;2022-12-16T20:50:54;56.30;;;32.70;;
38611;SDS011;24368;52.156;20.788;2022-12-16T20:56:15;57.20;;;34.10;;
38611;SDS011;24368;52.156;20.788;2022-12-16T21:01:35;46.70;;;29.40;;
38611;SDS011;24368;52.156;20.788;2022-12-16T21:06:55;46.80;;;27.80;;
38611;SDS011;24368;52.156;20.788;2022-12-16T21:12:14;45.70;;;27.50;;
38611;SDS011;24368;52.156;20.788;2022-12-16T21:17:34;43.50;;;28.30;;
38611;SDS011;24368;52.156;20.788;2022-12-16T21:23:00;46.20;;;28.00;;
38611;SDS011;24368;52.156;20.788;2022-12-16T21:28:22;47.50;;;28.20;;
38611;SDS011;24368;52.156;20.788;2022-12-16T21:33:42;43.80;;;27.00;;
38611;SDS011;24368;52.156;20.788;2022-12-16T21:39:02;46.20;;;27.80;;
38611;SDS011;24368;52.156;20.788;2022-12-16T21:44:22;48.40;;;29.70;;
38611;SDS011;24368;52.156;20.788;2022-12-16T21:49:41;44.60;;;28.60;;
38611;SDS011;24368;52.156;20.788;2022-12-16T21:55:02;53.50;;;31.80;;
38611;SDS011;24368;52.156;20.788;2022-12-16T22:00:38;50.80;;;30.80;;
38611;SDS011;24368;52.156;20.788;2022-12-16T22:05:58;45.10;;;28.50;;
38611;SDS011;24368;52.156;20.788;2022-12-16T22:11:18;48.70;;;32.40;;
38611;SDS011;24368;52.156;20.788;2022-12-16T22:16:38;53.80;;;31.70;;
38611;SDS011;24368;52.156;20.788;2022-12-16T22:21:58;54.50;;;31.90;;
38611;SDS011;24368;52.156;20.788;2022-12-16T22:27:28;54.90;;;30.80;;
38611;SDS011;24368;52.156;20.788;2022-12-16T22:32:48;50.70;;;30.60;;
38611;SDS011;24368;52.156;20.788;2022-12-16T22:38:08;52.40;;;31.90;;
38611;SDS011;24368;52.156;20.788;2022-12-16T22:43:29;59.30;;;33.70;;
38611;SDS011;24368;52.156;20.788;2022-12-16T22:48:50;53.20;;;32.60;;
38611;SDS011;24368;52.156;20.788;2022-12-16T22:54:10;55.60;;;32.00;;
38611;SDS011;24368;52.156;20.788;2022-12-16T22:59:30;51.70;;;29.00;;
38611;SDS011;24368;52.156;20.788;2022-12-16T23:04:49;46.50;;;27.90;;
38611;SDS011;24368;52.156;20.788;2022-12-16T23:10:09;54.60;;;30.10;;
38611;SDS011;24368;52.156;20.788;2022-12-16T23:15:29;50.40;;;30.90;;
38611;SDS011;24368;52.156;20.788;2022-12-16T23:20:49;51.30;;;29.50;;
38611;SDS011;24368;52.156;20.788;2022-12-16T23:26:10;45.70;;;29.30;;
38611;SDS011;24368;52.156;20.788;2022-12-16T23:31:29;48.30;;;27.90;;
38611;SDS011;24368;52.156;20.788;2022-12-16T23:36:49;44.80;;;26.20;;
38611;SDS011;24368;52.156;20.788;2022-12-16T23:42:09;42.70;;;23.90;;
38611;SDS011;24368;52.156;20.788;2022-12-16T23:47:30;45.80;;;27.30;;
38611;SDS011;24368;52.156;20.788;2022-12-16T23:52:50;44.20;;;26.30;;
38611;SDS011;24368;52.156;20.788;2022-12-16T23:58:10;48.20;;;26.90;;
